createdAt,value
2019-03-12T00:01:56.945Z,2.14
2019-03-12T00:04:28.753Z,2.10
2019-03-12T00:07:00.941Z,2.10
2019-03-12T00:09:32.165Z,2.10
2019-03-12T00:12:05.406Z,2.07
2019-03-12T00:14:38.857Z,2.02
2019-03-12T00:17:09.913Z,1.96
2019-03-12T00:19:41.056Z,1.94
2019-03-12T00:22:12.504Z,1.92
2019-03-12T00:24:43.640Z,1.90
2019-03-12T00:27:14.734Z,1.87
2019-03-12T00:29:45.833Z,1.89
2019-03-12T00:32:17.286Z,1.88
2019-03-12T00:34:48.268Z,1.82
2019-03-12T00:37:20.594Z,1.81
2019-03-12T00:39:52.154Z,1.74
2019-03-12T00:42:23.320Z,1.74
2019-03-12T00:44:54.783Z,1.80
2019-03-12T00:47:26.002Z,1.81
2019-03-12T00:49:57.278Z,1.80
2019-03-12T00:52:28.902Z,1.73
2019-03-12T00:55:00.374Z,1.80
2019-03-12T00:57:31.596Z,1.83
2019-03-12T01:00:04.613Z,1.83
2019-03-12T01:02:37.915Z,1.81
2019-03-12T01:05:08.749Z,1.81
2019-03-12T01:07:42.314Z,1.81
2019-03-12T01:10:15.554Z,1.81
2019-03-12T01:12:46.582Z,1.74
2019-03-12T01:15:17.701Z,1.70
2019-03-12T01:17:48.968Z,1.77
2019-03-12T01:20:20.090Z,1.73
2019-03-12T01:22:53.214Z,1.73
2019-03-12T01:25:24.277Z,1.69
2019-03-12T01:27:55.393Z,1.64
2019-03-12T01:30:26.668Z,1.64
2019-03-12T01:32:57.847Z,1.61
2019-03-12T01:35:28.899Z,1.58
2019-03-12T01:38:00.137Z,1.59
2019-03-12T01:40:31.284Z,1.61
2019-03-12T01:43:02.542Z,1.60
2019-03-12T01:45:33.714Z,1.64
2019-03-12T01:48:04.737Z,1.61
2019-03-12T01:50:35.971Z,1.57
2019-03-12T01:53:08.387Z,1.60
2019-03-12T01:55:40.747Z,1.60
2019-03-12T01:58:14.527Z,1.58
2019-03-12T02:00:44.557Z,1.58
2019-03-12T02:03:17.461Z,1.57
2019-03-12T02:05:48.683Z,1.55
2019-03-12T02:08:19.830Z,1.50
2019-03-12T02:10:51.002Z,1.51
2019-03-12T02:13:22.113Z,1.56
2019-03-12T02:15:53.433Z,1.54
2019-03-12T02:18:25.638Z,1.52
2019-03-12T02:20:57.603Z,1.44
2019-03-12T02:23:29.717Z,1.57
2019-03-12T02:26:00.709Z,1.52
2019-03-12T02:28:31.954Z,1.52
2019-03-12T02:31:03.215Z,1.50
2019-03-12T02:33:34.351Z,1.51
2019-03-12T02:36:05.695Z,1.55
2019-03-12T02:38:36.723Z,1.51
2019-03-12T02:41:07.784Z,1.58
2019-03-12T02:43:39.037Z,1.55
2019-03-12T02:46:10.045Z,1.52
2019-03-12T02:48:41.214Z,1.52
2019-03-12T02:51:12.379Z,1.53
2019-03-12T02:53:43.553Z,1.52
2019-03-12T02:56:14.649Z,1.51
2019-03-12T02:58:45.792Z,1.54
2019-03-12T03:01:16.740Z,1.55
2019-03-12T03:03:49.569Z,1.54
2019-03-12T03:06:22.523Z,1.48
2019-03-12T03:08:53.753Z,1.55
2019-03-12T03:11:24.761Z,1.52
2019-03-12T03:13:55.775Z,1.52
2019-03-12T03:16:26.908Z,1.48
2019-03-12T03:18:57.811Z,1.51
2019-03-12T03:21:28.762Z,1.45
2019-03-12T03:23:59.805Z,1.42
2019-03-12T03:26:31.101Z,1.45
2019-03-12T03:29:02.293Z,1.42
2019-03-12T03:31:33.590Z,1.49
2019-03-12T03:34:04.777Z,1.47
2019-03-12T03:36:38.083Z,1.51
2019-03-12T03:39:09.177Z,1.50
2019-03-12T03:41:40.417Z,1.53
2019-03-12T03:44:11.417Z,1.58
2019-03-12T03:46:42.682Z,1.53
2019-03-12T03:49:13.883Z,1.55
2019-03-12T03:51:46.180Z,1.53
2019-03-12T03:54:17.526Z,1.51
2019-03-12T03:56:48.719Z,1.51
2019-03-12T03:59:19.836Z,1.49
2019-03-12T04:01:59.329Z,1.47
2019-03-12T04:04:32.198Z,1.46
2019-03-12T04:07:03.292Z,1.54
2019-03-12T04:09:34.760Z,1.52
2019-03-12T04:12:05.791Z,1.55
2019-03-12T04:14:37.137Z,1.60
2019-03-12T04:17:08.803Z,1.56
2019-03-12T04:19:40.035Z,1.53
2019-03-12T04:22:11.390Z,1.57
2019-03-12T04:24:42.750Z,1.55
2019-03-12T04:27:13.762Z,1.63
2019-03-12T04:29:45.031Z,1.68
2019-03-12T04:32:16.240Z,1.70
2019-03-12T04:34:47.312Z,1.70
2019-03-12T04:37:18.378Z,1.72
2019-03-12T04:39:49.503Z,1.78
2019-03-12T04:42:24.909Z,1.82
2019-03-12T04:44:56.003Z,1.85
2019-03-12T04:47:27.242Z,1.85
2019-03-12T04:49:58.307Z,1.87
2019-03-12T04:52:29.579Z,1.94
2019-03-12T04:55:01.824Z,1.91
2019-03-12T04:57:33.035Z,1.92
2019-03-12T05:00:07.611Z,2.02
2019-03-12T05:02:38.924Z,2.06
2019-03-12T05:05:11.711Z,2.07
2019-03-12T05:07:44.196Z,2.10
2019-03-12T05:10:16.412Z,2.13
2019-03-12T05:12:47.407Z,2.28
2019-03-12T05:15:19.854Z,2.29
2019-03-12T05:17:50.907Z,2.32
2019-03-12T05:20:21.885Z,2.31
2019-03-12T05:22:53.019Z,2.27
2019-03-12T05:25:24.152Z,2.33
2019-03-12T05:27:56.275Z,2.46
2019-03-12T05:30:27.474Z,2.50
2019-03-12T05:32:59.628Z,2.55
2019-03-12T05:35:30.904Z,2.64
2019-03-12T05:38:04.063Z,2.65
2019-03-12T05:40:36.114Z,2.74
2019-03-12T05:43:07.765Z,2.75
2019-03-12T05:45:39.066Z,2.54
2019-03-12T05:48:10.921Z,2.39
2019-03-12T05:50:43.825Z,2.29
2019-03-12T05:53:15.315Z,2.25
2019-03-12T05:55:46.685Z,2.18
2019-03-12T05:58:17.933Z,2.15
2019-03-12T06:00:50.323Z,2.17
2019-03-12T06:03:21.902Z,2.23
2019-03-12T06:05:53.881Z,2.30
2019-03-12T06:08:25.608Z,2.35
2019-03-12T06:10:56.794Z,2.48
2019-03-12T06:13:28.243Z,2.55
2019-03-12T06:15:59.657Z,2.59
2019-03-12T06:18:30.945Z,2.71
2019-03-12T06:21:02.199Z,2.81
2019-03-12T06:23:34.513Z,2.98
2019-03-12T06:26:06.057Z,3.12
2019-03-12T06:28:37.586Z,3.18
2019-03-12T06:31:13.770Z,3.31
2019-03-12T06:33:52.758Z,3.30
2019-03-12T06:36:31.986Z,3.23
2019-03-12T06:39:21.509Z,3.26
2019-03-12T06:42:07.893Z,3.40
2019-03-12T06:44:41.344Z,3.37
2019-03-12T06:47:30.496Z,3.57
2019-03-12T06:50:12.474Z,3.66
2019-03-12T06:52:48.946Z,3.61
2019-03-12T06:55:28.740Z,3.78
2019-03-12T06:58:07.083Z,3.82
2019-03-12T07:00:45.930Z,3.77
2019-03-12T07:03:21.590Z,3.84
2019-03-12T07:05:54.238Z,4.01
2019-03-12T07:08:46.503Z,4.17
2019-03-12T07:11:37.015Z,4.16
2019-03-12T07:14:15.635Z,4.14
2019-03-12T07:16:54.285Z,4.29
2019-03-12T07:19:27.274Z,4.43
2019-03-12T07:22:02.827Z,4.66
2019-03-12T07:25:01.991Z,4.57
2019-03-12T07:27:44.092Z,4.68
2019-03-12T07:30:33.929Z,4.88
2019-03-12T07:33:16.267Z,4.92
2019-03-12T07:35:58.076Z,4.98
2019-03-12T07:38:31.489Z,4.66
2019-03-12T07:41:26.502Z,4.47
2019-03-12T07:43:53.625Z,4.51
2019-03-12T07:46:27.984Z,4.79
2019-03-12T07:49:09.954Z,4.88
2019-03-12T07:51:57.571Z,5.06
2019-03-12T07:54:48.989Z,4.72
2019-03-12T07:57:24.683Z,4.68
2019-03-12T08:00:02.037Z,4.72
2019-03-12T08:02:45.810Z,4.64
2019-03-12T08:05:34.508Z,4.66
2019-03-12T08:08:19.525Z,4.66
2019-03-12T08:11:09.872Z,4.86
2019-03-12T08:13:48.923Z,5.05
2019-03-12T08:16:36.762Z,5.04
2019-03-12T08:19:12.515Z,5.31
2019-03-12T08:21:50.428Z,5.28
2019-03-12T08:24:29.683Z,5.33
2019-03-12T08:27:15.353Z,5.60
2019-03-12T08:29:53.932Z,5.79
2019-03-12T08:32:42.277Z,5.51
2019-03-12T08:35:15.012Z,5.53
2019-03-12T08:37:50.425Z,5.79
2019-03-12T08:40:26.008Z,6.00
2019-03-12T08:43:06.229Z,6.18
2019-03-12T08:45:45.393Z,6.13
2019-03-12T08:48:34.350Z,6.37
2019-03-12T08:51:10.686Z,5.80
2019-03-12T08:53:43.661Z,6.23
2019-03-12T08:56:20.198Z,6.43
2019-03-12T08:59:01.890Z,6.56
2019-03-12T09:01:42.631Z,6.47
2019-03-12T09:04:15.552Z,6.65
2019-03-12T09:06:48.405Z,6.45
2019-03-12T09:09:29.031Z,6.46
2019-03-12T09:12:08.092Z,6.96
2019-03-12T09:14:44.249Z,7.25
2019-03-12T09:17:22.563Z,7.47
2019-03-12T09:20:03.548Z,7.40
2019-03-12T09:22:46.864Z,7.08
2019-03-12T09:25:23.466Z,7.12
2019-03-12T09:28:15.785Z,7.21
2019-03-12T09:31:05.745Z,6.89
2019-03-12T09:33:38.522Z,6.75
2019-03-12T09:36:18.192Z,6.48
2019-03-12T09:38:50.952Z,6.85
2019-03-12T09:41:23.856Z,7.26
2019-03-12T09:43:56.760Z,7.16
2019-03-12T09:46:32.486Z,7.01
2019-03-12T09:49:08.353Z,7.09
2019-03-12T09:51:44.180Z,6.80
2019-03-12T09:54:32.496Z,7.09
2019-03-12T09:57:20.619Z,7.24
2019-03-12T10:00:16.122Z,7.36
2019-03-12T10:03:01.731Z,7.30
2019-03-12T10:05:46.326Z,7.36
2019-03-12T10:08:19.671Z,7.50
2019-03-12T10:11:05.498Z,7.43
2019-03-12T10:13:54.140Z,7.30
2019-03-12T10:16:29.897Z,7.28
2019-03-12T10:19:02.542Z,7.44
2019-03-12T10:21:35.290Z,7.53
2019-03-12T10:24:20.813Z,7.95
2019-03-12T10:26:54.593Z,8.05
2019-03-12T10:29:44.984Z,8.68
2019-03-12T10:32:24.038Z,8.32
2019-03-12T10:34:59.002Z,8.99
2019-03-12T10:37:41.914Z,9.92
2019-03-12T10:40:26.567Z,10.60
2019-03-12T10:43:07.705Z,11.36
2019-03-12T10:45:54.214Z,11.25
2019-03-12T10:48:31.230Z,11.94
2019-03-12T10:51:06.734Z,11.90
2019-03-12T10:53:38.353Z,12.65
2019-03-12T10:56:13.114Z,12.15
2019-03-12T10:58:50.190Z,12.15
2019-03-12T11:01:23.090Z,12.70
2019-03-12T11:04:09.631Z,12.47
2019-03-12T11:06:40.714Z,12.80
2019-03-12T11:09:12.948Z,13.28
2019-03-12T11:11:44.089Z,13.65
2019-03-12T11:14:16.382Z,14.03
2019-03-12T11:16:47.532Z,13.59
2019-03-12T11:19:19.045Z,12.79
2019-03-12T11:21:50.450Z,13.09
2019-03-12T11:24:23.131Z,13.90
2019-03-12T11:26:56.387Z,13.63
2019-03-12T11:29:27.604Z,14.52
2019-03-12T11:32:00.428Z,14.39
2019-03-12T11:34:31.579Z,13.17
2019-03-12T11:37:02.945Z,13.79
2019-03-12T11:39:34.233Z,14.07
2019-03-12T11:42:05.341Z,13.81
2019-03-12T11:44:36.503Z,14.98
2019-03-12T11:47:07.873Z,15.49
2019-03-12T11:49:39.961Z,14.69
2019-03-12T11:52:11.117Z,14.24
2019-03-12T11:54:44.737Z,14.97
2019-03-12T11:57:17.733Z,14.86
2019-03-12T11:59:49.106Z,14.69
2019-03-12T12:02:20.377Z,14.31
2019-03-12T12:04:51.825Z,14.19
2019-03-12T12:07:24.533Z,14.13
2019-03-12T12:09:55.548Z,14.52
2019-03-12T12:12:27.619Z,13.78
2019-03-12T12:14:59.737Z,13.95
2019-03-12T12:17:30.960Z,13.27
2019-03-12T12:20:03.579Z,13.43
2019-03-12T12:22:34.587Z,12.42
2019-03-12T12:25:08.863Z,11.71
2019-03-12T12:27:41.069Z,12.09
2019-03-12T12:30:15.227Z,12.21
2019-03-12T12:32:45.873Z,12.43
2019-03-12T12:35:16.761Z,12.36
2019-03-12T12:37:49.214Z,12.32
2019-03-12T12:40:21.695Z,12.78
2019-03-12T12:42:52.749Z,12.34
2019-03-12T12:45:29.372Z,11.77
2019-03-12T12:48:00.387Z,12.28
2019-03-12T12:50:32.595Z,11.80
2019-03-12T12:53:03.690Z,10.81
2019-03-12T12:55:34.905Z,9.97
2019-03-12T12:58:06.257Z,9.89
2019-03-12T13:00:38.434Z,9.92
2019-03-12T13:03:09.856Z,9.25
2019-03-12T13:05:40.987Z,9.29
2019-03-12T13:08:12.149Z,8.80
2019-03-12T13:10:45.556Z,8.51
2019-03-12T13:13:20.559Z,8.28
2019-03-12T13:15:52.807Z,7.98
2019-03-12T13:18:25.582Z,7.76
2019-03-12T13:20:56.870Z,7.73
2019-03-12T13:23:27.868Z,7.64
2019-03-12T13:25:59.076Z,7.50
2019-03-12T13:28:31.097Z,7.50
2019-03-12T13:31:02.236Z,7.42
2019-03-12T13:33:33.450Z,7.34
2019-03-12T13:36:06.630Z,7.36
2019-03-12T13:38:45.788Z,7.30
2019-03-12T13:41:11.333Z,7.21
2019-03-12T13:43:43.643Z,6.86
2019-03-12T13:46:14.770Z,6.53
2019-03-12T13:48:46.952Z,6.65
2019-03-12T13:51:20.510Z,6.70
2019-03-12T13:53:52.683Z,6.62
2019-03-12T13:56:23.768Z,6.50
2019-03-12T13:58:54.758Z,6.57
2019-03-12T14:01:26.185Z,6.48
2019-03-12T14:04:10.078Z,6.53
2019-03-12T14:06:37.487Z,6.70
2019-03-12T14:09:08.131Z,6.53
2019-03-12T14:11:40.749Z,6.32
2019-03-12T14:14:11.836Z,6.44
2019-03-12T14:16:44.007Z,6.32
2019-03-12T14:19:15.083Z,6.20
2019-03-12T14:21:46.345Z,6.23
2019-03-12T14:24:17.455Z,6.13
2019-03-12T14:26:49.674Z,6.13
2019-03-12T14:29:20.718Z,6.02
2019-03-12T14:31:53.049Z,5.98
2019-03-12T14:34:30.699Z,6.02
2019-03-12T14:37:02.074Z,6.01
2019-03-12T14:39:33.093Z,5.97
2019-03-12T14:42:04.320Z,6.08
2019-03-12T14:44:35.955Z,5.94
2019-03-12T14:47:07.686Z,5.84
2019-03-12T14:49:38.927Z,5.86
2019-03-12T14:52:11.235Z,5.78
2019-03-12T14:54:42.468Z,5.70
2019-03-12T14:57:13.681Z,5.72
2019-03-12T14:59:45.886Z,5.68
2019-03-12T15:02:17.897Z,5.58
2019-03-12T15:04:50.036Z,5.52
2019-03-12T15:07:26.357Z,5.49
2019-03-12T15:09:57.532Z,5.41
2019-03-12T15:12:28.794Z,5.38
2019-03-12T15:15:00.052Z,5.32
2019-03-12T15:17:34.040Z,5.30
2019-03-12T15:20:10.013Z,5.35
2019-03-12T15:22:41.210Z,5.37
2019-03-12T15:25:14.407Z,5.19
2019-03-12T15:27:45.573Z,5.15
2019-03-12T15:30:20.020Z,5.14
2019-03-12T15:32:51.211Z,5.08
2019-03-12T15:35:22.361Z,5.09
2019-03-12T15:37:54.537Z,5.12
2019-03-12T15:40:25.712Z,5.03
2019-03-12T15:42:57.094Z,4.96
2019-03-12T15:45:28.196Z,4.97
2019-03-12T15:47:59.566Z,4.99
2019-03-12T15:50:30.695Z,4.87
2019-03-12T15:53:01.971Z,4.87
2019-03-12T15:55:33.243Z,4.86
2019-03-12T15:58:05.389Z,4.87
2019-03-12T16:00:53.836Z,4.85
2019-03-12T16:03:25.121Z,4.78
2019-03-12T16:05:56.525Z,4.84
2019-03-12T16:08:28.183Z,4.79
2019-03-12T16:10:59.280Z,4.69
2019-03-12T16:13:30.589Z,4.68
2019-03-12T16:16:01.904Z,4.70
2019-03-12T16:18:35.129Z,4.64
2019-03-12T16:21:07.387Z,4.64
2019-03-12T16:23:38.866Z,4.62
2019-03-12T16:26:12.354Z,4.62
2019-03-12T16:28:45.207Z,4.66
2019-03-12T16:31:16.762Z,4.65
2019-03-12T16:33:48.321Z,4.56
2019-03-12T16:36:19.860Z,4.56
2019-03-12T16:38:51.288Z,4.54
2019-03-12T16:41:23.909Z,4.52
2019-03-12T16:43:55.606Z,4.46
2019-03-12T16:46:27.138Z,4.44
2019-03-12T16:48:58.251Z,4.39
2019-03-12T16:51:29.306Z,4.33
2019-03-12T16:54:00.399Z,4.23
2019-03-12T16:56:44.170Z,4.28
2019-03-12T16:59:08.266Z,4.17
2019-03-12T17:01:38.135Z,4.13
2019-03-12T17:04:09.838Z,4.07
2019-03-12T17:06:41.493Z,4.09
2019-03-12T17:09:13.232Z,4.14
2019-03-12T17:11:47.215Z,4.05
2019-03-12T17:14:18.818Z,4.06
2019-03-12T17:16:51.523Z,4.02
2019-03-12T17:19:24.104Z,3.96
2019-03-12T17:21:55.557Z,3.99
2019-03-12T17:24:27.120Z,3.92
2019-03-12T17:27:00.809Z,3.87
2019-03-12T17:29:32.460Z,3.82
2019-03-12T17:32:04.755Z,3.83
2019-03-12T17:34:37.165Z,3.82
2019-03-12T17:37:09.616Z,3.77
2019-03-12T17:39:41.159Z,3.78
2019-03-12T17:42:12.385Z,3.77
2019-03-12T17:44:43.736Z,3.81
2019-03-12T17:47:15.197Z,3.73
2019-03-12T17:49:46.598Z,3.77
2019-03-12T17:52:17.837Z,3.76
2019-03-12T17:54:49.039Z,3.68
2019-03-12T17:57:21.125Z,3.58
2019-03-12T17:59:53.017Z,3.64
2019-03-12T18:02:25.815Z,3.58
2019-03-12T18:04:57.590Z,3.47
2019-03-12T18:07:29.151Z,3.43
2019-03-12T18:10:02.085Z,3.37
2019-03-12T18:12:34.948Z,3.41
2019-03-12T18:15:10.072Z,3.41
2019-03-12T18:17:41.953Z,3.34
2019-03-12T18:20:16.645Z,3.40
2019-03-12T18:22:47.977Z,3.37
2019-03-12T18:25:22.571Z,3.34
2019-03-12T18:27:54.177Z,3.28
2019-03-12T18:30:28.083Z,3.23
2019-03-12T18:32:59.546Z,3.16
2019-03-12T18:35:30.972Z,3.28
2019-03-12T18:38:02.555Z,3.29
2019-03-12T18:40:34.147Z,3.22
2019-03-12T18:43:05.813Z,3.11
2019-03-12T18:45:38.363Z,3.07
2019-03-12T18:48:10.611Z,3.01
2019-03-12T18:50:42.049Z,3.00
2019-03-12T18:53:13.410Z,3.04
2019-03-12T18:55:48.088Z,2.98
2019-03-12T18:58:20.710Z,2.88
2019-03-12T19:00:52.437Z,2.78
2019-03-12T19:03:24.241Z,2.72
2019-03-12T19:05:56.005Z,2.68
2019-03-12T19:08:31.684Z,2.54
2019-03-12T19:11:02.615Z,2.50
2019-03-12T19:13:34.833Z,2.42
2019-03-12T19:16:06.726Z,2.44
2019-03-12T19:18:39.958Z,2.47
2019-03-12T19:21:12.463Z,2.52
2019-03-12T19:23:44.554Z,2.54
2019-03-12T19:26:17.764Z,2.50
2019-03-12T19:28:52.027Z,2.31
2019-03-12T19:31:25.398Z,2.21
2019-03-12T19:34:00.559Z,2.12
2019-03-12T19:36:33.593Z,2.03
2019-03-12T19:39:08.156Z,2.16
2019-03-12T19:41:41.145Z,2.33
2019-03-12T19:44:13.853Z,2.26
2019-03-12T19:46:45.478Z,2.34
2019-03-12T19:49:16.932Z,2.44
2019-03-12T19:51:48.349Z,2.38
2019-03-12T19:54:19.950Z,2.38
2019-03-12T19:56:51.789Z,2.36
2019-03-12T19:59:23.664Z,2.27
2019-03-12T20:01:56.069Z,2.18
2019-03-12T20:04:29.193Z,2.08
2019-03-12T20:07:00.936Z,1.93
2019-03-12T20:09:35.899Z,1.80
2019-03-12T20:12:14.919Z,1.72
2019-03-12T20:15:19.803Z,1.69
2019-03-12T20:18:13.030Z,1.73
2019-03-12T20:21:00.542Z,1.68
2019-03-12T20:24:01.824Z,1.73
2019-03-12T20:26:55.117Z,1.80
2019-03-12T20:30:06.251Z,1.75
2019-03-12T20:32:58.902Z,1.65
2019-03-12T20:36:09.427Z,1.52
2019-03-12T20:39:00.857Z,1.51
2019-03-12T20:42:10.638Z,1.67
2019-03-12T20:45:02.588Z,1.64
2019-03-12T20:47:57.558Z,1.70
2019-03-12T20:50:37.831Z,1.74
2019-03-12T20:53:12.458Z,1.76
2019-03-12T20:56:17.689Z,1.76
2019-03-12T20:59:16.784Z,1.77
2019-03-12T21:02:24.642Z,1.74
2019-03-12T21:05:16.786Z,1.83
2019-03-12T21:07:57.165Z,1.90
2019-03-12T21:11:01.460Z,2.05
2019-03-12T21:13:54.199Z,2.16
2019-03-12T21:16:51.562Z,2.04
2019-03-12T21:19:51.851Z,1.99
2019-03-12T21:22:46.342Z,2.01
2019-03-12T21:25:30.188Z,2.00
2019-03-12T21:28:19.768Z,2.07
2019-03-12T21:30:52.648Z,2.12
2019-03-12T21:33:23.809Z,2.09
2019-03-12T21:35:55.146Z,2.08
2019-03-12T21:38:27.726Z,2.07
2019-03-12T21:40:59.188Z,1.99
2019-03-12T21:43:30.841Z,1.91
2019-03-12T21:46:02.307Z,1.79
2019-03-12T21:48:33.749Z,1.78
2019-03-12T21:51:04.887Z,1.76
2019-03-12T21:53:36.233Z,1.72
2019-03-12T21:56:07.563Z,1.79
2019-03-12T21:58:39.036Z,1.90
2019-03-12T22:01:10.464Z,1.89
2019-03-12T22:03:42.037Z,1.88
2019-03-12T22:06:13.382Z,1.92
2019-03-12T22:08:44.737Z,1.98
2019-03-12T22:11:16.198Z,2.08
2019-03-12T22:13:47.436Z,2.12
2019-03-12T22:16:18.852Z,2.15
2019-03-12T22:18:50.472Z,2.24
2019-03-12T22:21:23.152Z,2.20
2019-03-12T22:23:54.579Z,2.30
2019-03-12T22:26:26.903Z,2.33
2019-03-12T22:28:58.397Z,2.31
2019-03-12T22:31:29.578Z,2.24
2019-03-12T22:34:00.897Z,2.13
2019-03-12T22:36:33.579Z,2.11
2019-03-12T22:39:05.753Z,2.15
2019-03-12T22:41:37.509Z,2.24
2019-03-12T22:44:08.955Z,2.21
2019-03-12T22:46:41.746Z,2.19
2019-03-12T22:49:13.300Z,2.21
2019-03-12T22:51:44.953Z,2.21
2019-03-12T22:54:16.199Z,2.18
2019-03-12T22:56:48.331Z,2.17
2019-03-12T22:59:20.474Z,2.14
2019-03-12T23:02:09.870Z,2.06
2019-03-12T23:04:59.385Z,2.05
2019-03-12T23:07:48.089Z,2.03
2019-03-12T23:10:21.755Z,2.02
2019-03-12T23:12:54.538Z,1.99
2019-03-12T23:15:27.216Z,1.99
2019-03-12T23:17:59.482Z,1.97
2019-03-12T23:20:32.498Z,1.98
2019-03-12T23:23:05.534Z,2.01
2019-03-12T23:25:37.062Z,1.93
2019-03-12T23:28:08.885Z,1.98
2019-03-12T23:30:42.076Z,1.89
2019-03-12T23:33:15.357Z,1.91
2019-03-12T23:35:47.936Z,1.86
2019-03-12T23:38:18.972Z,1.92
2019-03-12T23:40:50.123Z,1.98
2019-03-12T23:43:23.090Z,1.93
2019-03-12T23:45:54.274Z,1.90
2019-03-12T23:48:25.603Z,1.81
2019-03-12T23:50:56.956Z,1.81
2019-03-12T23:53:29.440Z,1.72
2019-03-12T23:56:00.886Z,1.65
2019-03-12T23:58:32.065Z,1.45
